Time;durP1;ratioP1;P1;durP2;ratioP2;P2;SDS_P1;SDS_P2;PMS_P1;PMS_P2;Temp;Humidity;BMP_temperature;BMP_pressure;BME280_temperature;BME280_humidity;BME280_pressure;Samples;Min_cycle;Max_cycle;Signal;HPM_P1;HPM_P2
2022/02/27 00:02:07;;;;;;;9.18;5.05;;;7.30;52.90;;;;;;5053458;28;20027;-73
2022/02/27 00:04:33;;;;;;;6.57;3.90;;;7.30;52.70;;;;;;5053735;28;20476;-73
2022/02/27 00:06:59;;;;;;;10.32;4.82;;;7.40;52.60;;;;;;5073309;28;20027;-72
2022/02/27 00:09:25;;;;;;;10.50;5.28;;;7.50;52.70;;;;;;5071580;28;20775;-72
2022/02/27 00:11:50;;;;;;;10.75;5.22;;;7.50;52.70;;;;;;5067809;28;20032;-74
2022/02/27 00:14:16;;;;;;;11.02;5.07;;;7.60;52.60;;;;;;5051698;28;20056;-72
2022/02/27 00:16:42;;;;;;;9.27;5.18;;;7.60;52.60;;;;;;5052513;28;20024;-72
2022/02/27 00:19:08;;;;;;;9.57;4.72;;;7.60;52.60;;;;;;5063185;28;20036;-75
2022/02/27 00:21:34;;;;;;;9.13;4.75;;;7.60;52.50;;;;;;5053061;28;20449;-73
2022/02/27 00:23:59;;;;;;;10.65;5.05;;;7.70;52.30;;;;;;5056682;28;20057;-72
2022/02/27 00:26:25;;;;;;;9.52;4.65;;;7.70;52.20;;;;;;5088229;28;20025;-71
2022/02/27 00:28:51;;;;;;;12.57;5.03;;;7.70;52.30;;;;;;5073254;28;20027;-72
2022/02/27 00:31:17;;;;;;;9.95;4.07;;;7.70;52.10;;;;;;5097448;28;20024;-73
2022/02/27 00:33:42;;;;;;;9.27;4.28;;;7.60;52.00;;;;;;5094500;28;20028;-71
2022/02/27 00:36:09;;;;;;;13.18;4.50;;;7.60;52.00;;;;;;5056265;28;20534;-71
2022/02/27 00:38:35;;;;;;;9.13;4.75;;;7.60;52.00;;;;;;5054956;28;20029;-72
2022/02/27 00:41:01;;;;;;;8.70;5.03;;;7.60;52.00;;;;;;5052762;28;20022;-70
2022/02/27 00:43:27;;;;;;;12.05;4.80;;;7.60;52.10;;;;;;5052731;28;20032;-73
2022/02/27 00:45:52;;;;;;;10.55;5.03;;;7.60;52.00;;;;;;5051404;28;20025;-74
2022/02/27 00:48:18;;;;;;;7.53;4.30;;;7.60;51.90;;;;;;5051239;28;20013;-76
2022/02/27 00:50:44;;;;;;;10.50;5.57;;;7.50;51.80;;;;;;5054453;28;20021;-74
2022/02/27 00:53:10;;;;;;;8.48;4.55;;;7.50;51.80;;;;;;5060324;28;20063;-73
2022/02/27 00:55:36;;;;;;;21.88;4.70;;;7.50;51.90;;;;;;5064676;28;20024;-71
2022/02/27 00:58:03;;;;;;;11.05;5.80;;;7.40;52.00;;;;;;5052273;28;20033;-73
2022/02/27 01:00:28;;;;;;;8.50;4.65;;;7.40;52.20;;;;;;5060265;28;20462;-74
2022/02/27 01:02:54;;;;;;;9.40;5.18;;;7.30;52.10;;;;;;5067293;28;20052;-76
2022/02/27 01:05:20;;;;;;;14.88;6.15;;;7.30;52.30;;;;;;5060263;28;20052;-71
2022/02/27 01:07:46;;;;;;;9.20;5.75;;;7.20;52.40;;;;;;5060056;28;20012;-72
2022/02/27 01:10:12;;;;;;;13.75;5.82;;;7.20;52.50;;;;;;5071958;28;20508;-75
2022/02/27 01:12:38;;;;;;;10.48;5.60;;;7.10;52.50;;;;;;5068736;28;20060;-74
2022/02/27 01:15:04;;;;;;;10.88;5.28;;;7.20;52.80;;;;;;5064996;28;20432;-74
2022/02/27 01:17:30;;;;;;;10.63;6.22;;;7.20;52.90;;;;;;5065059;28;20021;-74
2022/02/27 01:19:56;;;;;;;13.57;6.85;;;7.20;53.10;;;;;;5057364;28;20029;-72
2022/02/27 01:22:22;;;;;;;16.17;6.68;;;7.20;53.10;;;;;;5052058;28;20124;-74
2022/02/27 01:24:47;;;;;;;12.77;6.40;;;7.30;53.10;;;;;;5060647;28;20104;-73
2022/02/27 01:27:13;;;;;;;14.50;6.20;;;7.30;53.00;;;;;;5055654;28;20413;-70
2022/02/27 01:29:39;;;;;;;10.80;5.63;;;7.30;53.00;;;;;;5065228;28;20032;-73
2022/02/27 01:32:05;;;;;;;12.35;5.78;;;7.40;52.90;;;;;;5061043;28;20317;-72
2022/02/27 01:34:32;;;;;;;9.38;5.10;;;7.40;52.90;;;;;;5052423;28;20466;-72
2022/02/27 01:36:58;;;;;;;11.05;5.22;;;7.50;52.80;;;;;;5070006;28;20562;-73
2022/02/27 01:39:24;;;;;;;9.88;4.65;;;7.50;52.70;;;;;;5071982;28;20024;-72
2022/02/27 01:41:50;;;;;;;12.35;5.15;;;7.50;52.60;;;;;;5063373;28;20048;-72
2022/02/27 01:44:16;;;;;;;9.90;5.20;;;7.60;52.60;;;;;;5054854;28;20096;-70
2022/02/27 01:46:59;;;;;;;10.90;5.95;;;7.60;52.60;;;;;;5070630;28;20103;-73
2022/02/27 01:49:25;;;;;;;10.00;5.78;;;7.50;52.40;;;;;;5064526;28;20103;-74
2022/02/27 01:51:51;;;;;;;14.45;5.60;;;7.60;52.30;;;;;;5073507;28;20311;-71
2022/02/27 01:54:17;;;;;;;11.10;5.75;;;7.60;52.30;;;;;;5075939;28;20020;-74
2022/02/27 01:56:44;;;;;;;14.32;6.45;;;7.50;52.30;;;;;;5075607;28;20115;-73
2022/02/27 01:59:10;;;;;;;10.15;5.30;;;7.50;52.30;;;;;;5075720;28;20066;-73
2022/02/27 02:01:36;;;;;;;10.63;4.93;;;7.50;52.30;;;;;;5070173;28;20056;-74
2022/02/27 02:04:02;;;;;;;10.40;5.35;;;7.50;52.30;;;;;;5056890;28;20032;-71
2022/02/27 02:06:28;;;;;;;9.60;5.07;;;7.50;52.20;;;;;;5060720;28;20104;-74
2022/02/27 02:08:53;;;;;;;8.75;5.35;;;7.50;52.20;;;;;;5054344;28;20029;-74
2022/02/27 02:11:19;;;;;;;9.48;4.85;;;7.50;52.20;;;;;;5055383;28;20035;-71
2022/02/27 02:13:45;;;;;;;9.70;5.22;;;7.50;52.20;;;;;;5070001;28;20025;-72
2022/02/27 02:16:11;;;;;;;11.27;5.65;;;7.40;52.20;;;;;;5055235;28;20029;-74
2022/02/27 02:18:40;;;;;;;11.43;5.25;;;7.40;52.20;;;;;;5055205;28;20398;-72
2022/02/27 02:21:07;;;;;;;10.73;4.68;;;7.40;52.30;;;;;;5053912;28;20029;-73
2022/02/27 02:23:32;;;;;;;9.10;5.25;;;7.30;52.20;;;;;;5055247;28;20013;-75
2022/02/27 02:26:03;;;;;;;8.95;5.47;;;7.40;52.40;;;;;;5071665;28;20550;-71
2022/02/27 02:28:29;;;;;;;10.93;5.43;;;7.30;52.40;;;;;;5073986;28;20029;-73
2022/02/27 02:30:55;;;;;;;10.65;5.25;;;7.30;52.50;;;;;;5074217;28;20025;-74
2022/02/27 02:33:33;;;;;;;11.07;5.43;;;7.30;52.50;;;;;;5055168;28;20382;-73
2022/02/27 02:35:59;;;;;;;8.82;4.75;;;7.30;52.70;;;;;;5060856;28;20023;-75
2022/02/27 02:38:26;;;;;;;11.07;5.30;;;7.30;52.60;;;;;;5058482;28;20037;-75
2022/02/27 02:40:52;;;;;;;12.88;5.47;;;7.30;52.70;;;;;;5053670;28;20031;-72
2022/02/27 02:43:17;;;;;;;12.13;5.40;;;7.40;52.70;;;;;;5054972;28;20379;-75
2022/02/27 02:45:43;;;;;;;11.90;5.72;;;7.40;52.80;;;;;;5055253;28;20025;-73
2022/02/27 02:48:09;;;;;;;8.40;4.97;;;7.40;52.80;;;;;;5068927;28;20120;-74
2022/02/27 02:50:35;;;;;;;10.02;5.93;;;7.40;52.70;;;;;;5054808;28;20083;-75
2022/02/27 02:53:01;;;;;;;12.25;6.35;;;7.40;52.70;;;;;;5072541;28;20078;-73
2022/02/27 02:55:26;;;;;;;8.18;5.53;;;7.40;52.70;;;;;;5074486;28;20021;-74
2022/02/27 02:57:53;;;;;;;10.65;5.38;;;7.40;52.70;;;;;;5067933;28;20127;-71
2022/02/27 03:00:19;;;;;;;13.77;5.05;;;7.40;53.30;;;;;;5053250;28;20025;-73
2022/02/27 03:02:44;;;;;;;8.60;4.68;;;7.40;52.70;;;;;;5061071;28;20391;-73
2022/02/27 03:05:11;;;;;;;11.90;5.93;;;7.40;52.70;;;;;;5052747;28;20020;-74
2022/02/27 03:07:38;;;;;;;13.80;5.28;;;7.50;52.90;;;;;;5052761;28;20496;-72
2022/02/27 03:10:06;;;;;;;10.05;4.97;;;7.50;52.80;;;;;;5054098;28;20036;-73
2022/02/27 03:12:32;;;;;;;11.02;5.00;;;7.50;52.70;;;;;;5054457;28;20025;-74
2022/02/27 03:14:58;;;;;;;10.95;5.70;;;7.50;52.70;;;;;;5056489;28;20029;-71
2022/02/27 03:17:24;;;;;;;11.77;5.18;;;7.50;52.70;;;;;;5074294;28;20020;-73
2022/02/27 03:19:49;;;;;;;14.38;6.18;;;7.50;52.70;;;;;;5074384;28;20406;-71
2022/02/27 03:22:15;;;;;;;9.75;5.22;;;7.40;52.60;;;;;;5068387;28;20486;-74
2022/02/27 03:24:42;;;;;;;11.55;5.90;;;7.40;52.80;;;;;;5054362;28;20053;-71
2022/02/27 03:27:08;;;;;;;10.60;5.55;;;7.40;52.90;;;;;;5054306;28;20032;-71
2022/02/27 03:29:34;;;;;;;11.93;6.32;;;7.30;52.70;;;;;;5052323;28;20025;-74
2022/02/27 03:32:00;;;;;;;10.43;5.13;;;7.30;52.90;;;;;;5057462;28;20497;-71
2022/02/27 03:34:26;;;;;;;7.43;5.00;;;7.20;52.80;;;;;;5054070;28;20060;-74
2022/02/27 03:36:52;;;;;;;11.68;5.28;;;7.20;52.80;;;;;;5052628;28;20099;-73
2022/02/27 03:39:17;;;;;;;10.45;5.28;;;7.10;52.90;;;;;;5053862;28;20025;-71
2022/02/27 03:41:43;;;;;;;10.35;5.40;;;7.10;53.00;;;;;;5053995;28;20029;-73
2022/02/27 03:44:09;;;;;;;8.43;4.75;;;7.00;53.00;;;;;;5053816;28;20017;-74
2022/02/27 03:46:35;;;;;;;8.90;4.88;;;7.00;53.10;;;;;;5053874;28;20077;-71
2022/02/27 03:49:03;;;;;;;8.68;4.55;;;6.90;53.00;;;;;;5053683;28;20505;-74
2022/02/27 03:51:29;;;;;;;16.20;7.30;;;6.90;53.10;;;;;;5058626;28;20028;-72
2022/02/27 03:53:54;;;;;;;11.88;6.32;;;6.90;53.20;;;;;;5072332;28;20462;-74
2022/02/27 03:56:20;;;;;;;11.70;5.57;;;6.80;53.20;;;;;;5057348;28;20482;-72
2022/02/27 03:58:46;;;;;;;10.65;5.78;;;6.80;53.40;;;;;;5054971;28;20482;-72
2022/02/27 04:01:11;;;;;;;11.10;5.43;;;6.80;53.40;;;;;;5053289;28;20241;-72
2022/02/27 04:03:37;;;;;;;9.70;4.82;;;6.80;53.50;;;;;;5053524;28;20078;-74
2022/02/27 04:06:03;;;;;;;15.27;6.95;;;6.70;53.50;;;;;;5057635;28;20082;-75
2022/02/27 04:08:29;;;;;;;11.80;5.22;;;6.70;53.60;;;;;;5073295;28;20036;-74
2022/02/27 04:10:54;;;;;;;12.57;6.07;;;6.60;53.50;;;;;;5065770;28;20475;-71
2022/02/27 04:13:20;;;;;;;11.68;5.97;;;6.60;53.60;;;;;;5051508;28;20069;-72
2022/02/27 04:15:46;;;;;;;6.90;3.92;;;6.60;53.50;;;;;;5052176;28;20103;-73
2022/02/27 04:18:11;;;;;;;8.13;4.60;;;6.60;53.40;;;;;;5053208;28;20025;-71
2022/02/27 04:20:37;;;;;;;11.27;5.93;;;6.60;53.20;;;;;;5053055;28;20028;-74
2022/02/27 04:23:03;;;;;;;16.02;6.50;;;6.50;53.20;;;;;;5053328;28;20021;-74
2022/02/27 04:25:29;;;;;;;10.40;5.97;;;6.50;53.40;;;;;;5051894;28;20079;-73
2022/02/27 04:27:56;;;;;;;8.45;4.97;;;6.40;53.30;;;;;;5053132;28;20029;-71
2022/02/27 04:30:22;;;;;;;14.30;5.20;;;6.40;53.20;;;;;;5053243;28;20486;-74
2022/02/27 04:32:49;;;;;;;12.65;5.18;;;6.30;53.20;;;;;;5052985;28;20111;-71
2022/02/27 04:35:15;;;;;;;8.75;5.15;;;6.30;53.20;;;;;;5052794;28;20083;-74
2022/02/27 04:37:42;;;;;;;10.43;4.85;;;6.20;53.20;;;;;;5069062;28;20436;-70
2022/02/27 04:40:08;;;;;;;9.80;5.40;;;6.20;53.30;;;;;;5072653;28;20052;-73
2022/02/27 04:42:34;;;;;;;9.07;5.28;;;6.10;53.40;;;;;;5071447;28;20029;-74
2022/02/27 04:45:00;;;;;;;10.55;5.95;;;6.10;53.60;;;;;;5071739;28;20069;-71
2022/02/27 04:47:26;;;;;;;13.45;5.90;;;6.10;53.70;;;;;;5072683;28;20035;-71
2022/02/27 04:49:52;;;;;;;8.60;4.82;;;6.00;53.80;;;;;;5052795;28;20029;-73
2022/02/27 04:52:18;;;;;;;12.70;5.13;;;6.00;53.90;;;;;;5066280;28;20026;-72
2022/02/27 04:54:44;;;;;;;13.00;5.25;;;6.00;53.90;;;;;;5071879;28;20516;-71
2022/02/27 04:57:10;;;;;;;11.52;5.68;;;6.00;53.90;;;;;;5072366;28;20103;-72
2022/02/27 04:59:36;;;;;;;8.63;4.50;;;6.10;53.80;;;;;;5071458;28;20056;-75
2022/02/27 05:02:02;;;;;;;9.55;5.15;;;6.10;53.70;;;;;;5072415;28;20438;-74
2022/02/27 05:04:28;;;;;;;13.77;5.55;;;6.00;53.60;;;;;;5072497;28;20025;-74
2022/02/27 05:06:54;;;;;;;11.23;6.18;;;6.00;53.60;;;;;;5071978;28;20363;-73
2022/02/27 05:09:20;;;;;;;23.23;7.13;;;6.10;53.60;;;;;;5072374;28;20502;-73
2022/02/27 05:11:48;;;;;;;17.23;6.15;;;6.10;53.50;;;;;;5072447;28;20550;-72
2022/02/27 05:14:14;;;;;;;16.63;6.22;;;6.10;53.50;;;;;;5054600;28;20033;-74
2022/02/27 05:16:41;;;;;;;20.00;7.93;;;6.10;53.40;;;;;;5052261;28;20033;-71
2022/02/27 05:19:07;;;;;;;21.90;8.90;;;6.10;53.30;;;;;;5052015;28;20021;-74
2022/02/27 05:21:34;;;;;;;22.42;9.23;;;6.20;53.20;;;;;;5051888;28;20019;-71
2022/02/27 05:24:00;;;;;;;20.27;8.18;;;6.20;53.10;;;;;;5050567;28;20052;-73
2022/02/27 05:26:27;;;;;;;18.15;8.00;;;6.20;53.10;;;;;;5057211;28;20028;-72
2022/02/27 05:28:53;;;;;;;14.07;6.53;;;6.20;53.60;;;;;;5051264;28;20031;-72
2022/02/27 05:31:19;;;;;;;20.20;7.10;;;6.20;53.00;;;;;;5051369;28;20021;-72
2022/02/27 05:33:45;;;;;;;12.65;5.50;;;6.20;53.00;;;;;;5050923;28;20120;-74
2022/02/27 05:36:10;;;;;;;11.93;4.82;;;6.20;53.20;;;;;;5055621;28;20028;-74
2022/02/27 05:38:36;;;;;;;10.75;5.18;;;6.20;53.10;;;;;;5064145;28;20390;-73
2022/02/27 05:41:02;;;;;;;9.88;4.97;;;6.20;53.30;;;;;;5052032;28;20033;-73
2022/02/27 05:43:29;;;;;;;10.13;4.70;;;6.20;53.30;;;;;;5052161;28;20029;-71
2022/02/27 05:45:55;;;;;;;13.15;5.35;;;6.20;53.20;;;;;;5055585;28;20063;-72
2022/02/27 05:48:20;;;;;;;13.98;5.07;;;6.20;53.20;;;;;;5055859;28;20057;-72
2022/02/27 05:50:46;;;;;;;11.15;5.07;;;6.30;53.30;;;;;;5052262;28;20122;-75
2022/02/27 05:53:12;;;;;;;8.20;4.07;;;6.30;53.20;;;;;;5052353;28;20072;-73
2022/02/27 05:55:38;;;;;;;8.85;4.20;;;6.20;53.00;;;;;;5052258;28;20040;-73
2022/02/27 05:58:04;;;;;;;12.10;4.80;;;6.30;53.00;;;;;;5050742;28;20055;-72
2022/02/27 06:00:30;;;;;;;15.50;4.90;;;6.30;53.00;;;;;;5052157;28;20052;-72
2022/02/27 06:02:55;;;;;;;12.13;6.05;;;6.30;53.00;;;;;;5051941;28;20486;-74
2022/02/27 06:05:21;;;;;;;7.10;4.70;;;6.30;52.90;;;;;;5051720;28;20028;-73
2022/02/27 06:07:47;;;;;;;14.05;5.40;;;6.30;52.80;;;;;;5050890;28;20017;-70
2022/02/27 06:10:13;;;;;;;8.73;4.97;;;6.40;52.60;;;;;;5052123;28;20056;-74
2022/02/27 06:12:46;;;;;;;8.60;5.20;;;6.40;52.40;;;;;;5051533;28;20083;-69
2022/02/27 06:15:12;;;;;;;10.23;5.15;;;6.40;52.20;;;;;;5052122;28;20482;-73
2022/02/27 06:17:38;;;;;;;14.38;5.30;;;6.50;52.10;;;;;;5051831;28;20039;-71
2022/02/27 06:20:05;;;;;;;9.65;5.10;;;6.50;51.90;;;;;;5050702;28;20025;-75
2022/02/27 06:22:30;;;;;;;7.55;4.43;;;6.50;52.20;;;;;;5051695;28;20028;-71
2022/02/27 06:24:56;;;;;;;10.80;6.20;;;6.60;52.00;;;;;;5051762;28;20067;-72
2022/02/27 06:27:22;;;;;;;11.88;5.72;;;6.60;52.00;;;;;;5058095;28;20024;-72
2022/02/27 06:29:48;;;;;;;21.13;5.93;;;6.70;52.00;;;;;;5071885;28;20024;-72
2022/02/27 06:32:13;;;;;;;15.88;6.25;;;6.80;51.80;;;;;;5071942;28;20474;-72
2022/02/27 06:34:39;;;;;;;13.55;6.40;;;6.90;51.60;;;;;;5073109;28;20085;-73
2022/02/27 06:37:05;;;;;;;11.40;5.82;;;7.00;51.40;;;;;;5075474;28;20024;-73
2022/02/27 06:39:30;;;;;;;10.27;6.45;;;7.10;51.10;;;;;;5075379;28;20029;-72
2022/02/27 06:41:56;;;;;;;10.57;5.53;;;7.20;51.00;;;;;;5074437;28;20028;-73
2022/02/27 06:44:22;;;;;;;11.13;6.10;;;7.20;50.70;;;;;;5075375;28;20017;-72
2022/02/27 06:46:48;;;;;;;14.45;5.72;;;7.30;51.00;;;;;;5075257;28;20031;-69
2022/02/27 06:49:13;;;;;;;14.23;6.60;;;7.40;50.80;;;;;;5075294;28;20024;-75
2022/02/27 06:51:39;;;;;;;10.77;6.47;;;7.50;50.50;;;;;;5072861;28;20494;-71
2022/02/27 06:54:05;;;;;;;11.02;6.25;;;7.50;50.30;;;;;;5075204;28;20027;-73
2022/02/27 06:56:31;;;;;;;12.40;6.38;;;7.50;50.10;;;;;;5070238;28;20056;-73
2022/02/27 06:58:57;;;;;;;11.30;5.95;;;7.50;50.00;;;;;;5060205;28;20041;-73
2022/02/27 07:01:22;;;;;;;12.60;5.63;;;7.50;49.80;;;;;;5055084;28;20419;-72
2022/02/27 07:03:48;;;;;;;11.65;5.90;;;7.40;49.80;;;;;;5054966;28;20100;-72
2022/02/27 07:06:14;;;;;;;12.82;7.05;;;7.40;49.80;;;;;;5053577;28;20104;-73
2022/02/27 07:08:40;;;;;;;11.90;5.78;;;7.40;49.80;;;;;;5054892;28;20100;-71
2022/02/27 07:11:05;;;;;;;12.40;6.40;;;7.40;49.80;;;;;;5054649;28;20023;-75
2022/02/27 07:13:31;;;;;;;10.90;5.80;;;7.40;49.90;;;;;;5061537;28;20035;-71
2022/02/27 07:15:57;;;;;;;11.43;6.47;;;7.50;49.70;;;;;;5074281;28;20108;-71
2022/02/27 07:18:23;;;;;;;13.18;6.68;;;7.50;49.70;;;;;;5055363;28;20094;-76
2022/02/27 07:20:48;;;;;;;12.07;6.28;;;7.50;49.80;;;;;;5054665;28;20092;-74
2022/02/27 07:23:14;;;;;;;11.75;6.47;;;7.60;50.00;;;;;;5054486;28;20387;-74
2022/02/27 07:25:40;;;;;;;12.50;7.10;;;7.60;50.10;;;;;;5054692;28;20025;-74
2022/02/27 07:28:06;;;;;;;12.98;7.32;;;7.70;50.20;;;;;;5054243;28;20490;-72
2022/02/27 07:30:32;;;;;;;10.45;6.15;;;7.90;50.10;;;;;;5054825;28;20501;-72
2022/02/27 07:32:58;;;;;;;10.52;6.75;;;8.00;50.00;;;;;;5065471;28;20048;-72
2022/02/27 07:35:24;;;;;;;13.25;7.05;;;8.10;49.50;;;;;;5073155;28;20032;-72
2022/02/27 07:37:50;;;;;;;13.52;7.82;;;8.20;49.20;;;;;;5074364;28;20103;-75
2022/02/27 07:40:15;;;;;;;13.13;7.13;;;8.20;48.70;;;;;;5072902;28;20025;-74
2022/02/27 07:42:41;;;;;;;17.23;8.55;;;8.30;48.70;;;;;;5069477;28;20017;-73
2022/02/27 07:45:07;;;;;;;13.18;7.80;;;8.30;48.40;;;;;;5053814;28;20378;-74
2022/02/27 07:47:33;;;;;;;19.77;7.63;;;8.30;48.30;;;;;;5054090;28;20359;-74
2022/02/27 07:49:59;;;;;;;16.35;7.63;;;8.30;48.50;;;;;;5054039;28;20023;-73
2022/02/27 07:52:25;;;;;;;14.48;7.90;;;8.30;48.50;;;;;;5073347;28;20116;-73
2022/02/27 07:54:51;;;;;;;16.40;8.68;;;8.30;48.60;;;;;;5072683;28;20060;-72
2022/02/27 07:57:17;;;;;;;13.75;7.93;;;8.30;48.50;;;;;;5072308;28;20190;-74
2022/02/27 07:59:43;;;;;;;12.88;7.28;;;8.30;48.10;;;;;;5072537;28;20028;-71
2022/02/27 08:02:08;;;;;;;17.75;9.07;;;8.30;48.20;;;;;;5073366;28;20097;-74
2022/02/27 08:04:34;;;;;;;14.85;8.43;;;8.30;48.00;;;;;;5073210;28;20096;-75
2022/02/27 08:07:03;;;;;;;14.02;7.93;;;8.40;48.20;;;;;;5073692;28;20093;-75
2022/02/27 08:09:29;;;;;;;22.80;11.65;;;8.40;48.30;;;;;;5072447;28;20103;-72
2022/02/27 08:11:54;;;;;;;19.55;10.55;;;8.40;48.10;;;;;;5071799;28;20187;-72
2022/02/27 08:14:20;;;;;;;16.42;9.60;;;8.50;48.10;;;;;;5053634;28;20108;-70
2022/02/27 08:16:46;;;;;;;19.80;11.00;;;8.60;48.40;;;;;;5053615;28;20451;-73
2022/02/27 08:19:12;;;;;;;19.17;10.55;;;8.70;48.40;;;;;;5053525;28;20548;-74
2022/02/27 08:21:38;;;;;;;19.70;9.95;;;8.90;48.20;;;;;;5053471;28;20492;-74
2022/02/27 08:24:06;;;;;;;16.55;9.13;;;9.00;48.20;;;;;;5053425;28;20016;-75
2022/02/27 08:26:32;;;;;;;16.92;9.25;;;9.10;48.20;;;;;;5053206;28;20067;-72
2022/02/27 08:28:59;;;;;;;17.75;9.35;;;9.30;48.00;;;;;;5053297;28;20497;-72
2022/02/27 08:31:24;;;;;;;15.07;8.82;;;9.50;47.60;;;;;;5053280;28;20021;-71
2022/02/27 08:33:50;;;;;;;20.08;10.85;;;9.60;46.90;;;;;;5053223;28;20013;-74
2022/02/27 08:36:17;;;;;;;17.88;9.82;;;9.80;46.60;;;;;;5053218;28;20033;-75
2022/02/27 08:38:43;;;;;;;15.68;8.23;;;9.90;46.40;;;;;;5053111;28;20024;-71
2022/02/27 08:41:10;;;;;;;21.77;10.88;;;9.90;46.10;;;;;;5053210;28;20028;-75
2022/02/27 08:43:35;;;;;;;21.42;10.50;;;10.00;45.70;;;;;;5052815;28;20025;-74
2022/02/27 08:46:02;;;;;;;16.92;9.90;;;10.10;45.90;;;;;;5052832;28;20025;-76
2022/02/27 08:48:29;;;;;;;16.98;10.25;;;10.20;46.00;;;;;;5051539;28;20032;-71
2022/02/27 08:50:54;;;;;;;15.93;9.40;;;10.30;46.20;;;;;;5052487;28;20031;-74
2022/02/27 08:53:20;;;;;;;18.50;10.70;;;10.50;46.50;;;;;;5052981;28;20470;-73
2022/02/27 08:55:46;;;;;;;21.00;10.95;;;10.50;46.50;;;;;;5051696;28;20455;-73
2022/02/27 08:58:12;;;;;;;15.80;9.73;;;10.60;46.40;;;;;;5051576;28;20132;-75
2022/02/27 09:00:38;;;;;;;16.23;9.05;;;10.70;46.40;;;;;;5061872;28;20071;-76
2022/02/27 09:03:04;;;;;;;13.60;8.38;;;10.80;46.60;;;;;;5072493;28;20377;-74
2022/02/27 09:05:30;;;;;;;13.95;8.82;;;11.00;46.80;;;;;;5066466;28;20021;-75
2022/02/27 09:07:56;;;;;;;15.88;9.57;;;11.10;45.80;;;;;;5058752;28;20104;-73
2022/02/27 09:10:22;;;;;;;16.63;9.32;;;11.30;44.20;;;;;;5052410;28;20029;-72
2022/02/27 09:12:48;;;;;;;17.13;8.82;;;11.40;44.30;;;;;;5054745;28;20036;-73
2022/02/27 09:15:14;;;;;;;15.73;8.73;;;11.60;44.30;;;;;;5052299;28;20071;-75
2022/02/27 09:17:40;;;;;;;14.25;7.50;;;11.70;43.40;;;;;;5052309;28;20025;-74
2022/02/27 09:20:08;;;;;;;14.05;8.65;;;11.80;42.90;;;;;;5051028;28;20098;-72
2022/02/27 09:22:34;;;;;;;16.70;9.38;;;11.90;42.60;;;;;;5052447;28;20025;-72
2022/02/27 09:25:00;;;;;;;14.93;8.75;;;11.90;41.80;;;;;;5052200;28;20100;-74
2022/02/27 09:27:26;;;;;;;17.27;9.13;;;11.90;41.40;;;;;;5051878;28;20096;-73
2022/02/27 09:29:53;;;;;;;15.48;8.40;;;11.80;41.30;;;;;;5050850;28;20052;-73
2022/02/27 09:32:19;;;;;;;16.45;8.63;;;11.70;41.60;;;;;;5050784;28;20040;-74
2022/02/27 09:34:45;;;;;;;13.90;7.80;;;11.70;41.50;;;;;;5060913;28;20032;-74
2022/02/27 09:37:11;;;;;;;15.02;7.95;;;11.60;41.90;;;;;;5064429;28;20037;-72
2022/02/27 09:39:37;;;;;;;12.93;7.97;;;11.60;42.30;;;;;;5065331;28;20024;-74
2022/02/27 09:42:04;;;;;;;17.25;8.65;;;11.60;42.40;;;;;;5052064;28;20021;-74
2022/02/27 09:44:39;;;;;;;17.77;9.85;;;11.60;42.40;;;;;;5051870;28;20032;-71
2022/02/27 09:47:07;;;;;;;20.05;10.00;;;11.70;42.30;;;;;;5052127;28;20013;-75
2022/02/27 09:49:34;;;;;;;17.98;9.98;;;11.80;42.40;;;;;;5051999;28;20029;-76
2022/02/27 09:52:00;;;;;;;19.52;11.23;;;11.90;41.70;;;;;;5060532;28;20023;-74
2022/02/27 09:54:27;;;;;;;23.88;11.65;;;12.00;41.60;;;;;;5070574;28;20029;-74
2022/02/27 09:56:53;;;;;;;17.52;10.38;;;12.00;41.30;;;;;;5055325;28;20052;-74
2022/02/27 09:59:19;;;;;;;20.60;10.10;;;12.10;41.10;;;;;;5059192;28;20470;-77
2022/02/27 10:02:17;;;;;;;17.50;10.90;;;12.10;41.10;;;;;;5070052;28;20033;-75
2022/02/27 10:04:48;;;;;;;19.83;10.88;;;12.10;41.60;;;;;;5052716;28;20435;-70
2022/02/27 10:07:20;;;;;;;21.80;12.35;;;12.10;41.50;;;;;;5053794;28;20028;-71
2022/02/27 10:09:47;;;;;;;20.15;12.00;;;12.20;41.70;;;;;;5071594;28;20448;-72
2022/02/27 10:12:21;;;;;;;19.10;12.18;;;12.20;41.70;;;;;;5057209;28;20091;-73
2022/02/27 10:15:04;;;;;;;19.00;12.15;;;12.30;41.80;;;;;;5053475;28;20037;-70
2022/02/27 10:17:36;;;;;;;23.25;11.75;;;12.30;41.70;;;;;;5053487;28;20025;-72
2022/02/27 10:20:07;;;;;;;23.42;13.25;;;12.40;41.80;;;;;;5053444;28;20025;-74
2022/02/27 10:22:36;;;;;;;24.85;13.40;;;12.40;41.50;;;;;;5053317;28;20060;-71
2022/02/27 10:25:07;;;;;;;24.65;13.30;;;12.50;41.10;;;;;;5061852;28;20029;-70
2022/02/27 10:27:47;;;;;;;25.83;13.40;;;12.70;41.20;;;;;;5055833;28;20028;-73
2022/02/27 10:30:16;;;;;;;26.48;14.27;;;12.80;41.10;;;;;;5062465;28;20032;-72
2022/02/27 10:32:46;;;;;;;26.20;12.70;;;12.90;40.90;;;;;;5073197;28;20477;-72
2022/02/27 10:35:32;;;;;;;23.77;12.27;;;13.00;40.00;;;;;;5073020;28;20028;-74
2022/02/27 10:37:58;;;;;;;23.55;12.32;;;13.00;40.10;;;;;;5064247;28;20025;-75
2022/02/27 10:40:48;;;;;;;21.55;12.02;;;13.20;40.30;;;;;;5057713;28;20041;-74
2022/02/27 10:43:16;;;;;;;20.25;11.40;;;13.20;40.30;;;;;;5059233;28;20470;-73
2022/02/27 10:45:43;;;;;;;20.02;10.63;;;13.40;39.70;;;;;;5068700;28;20025;-70
2022/02/27 10:48:16;;;;;;;15.15;9.75;;;13.50;39.40;;;;;;5074826;28;20024;-72
2022/02/27 10:50:45;;;;;;;16.60;9.60;;;13.60;39.00;;;;;;5066583;28;20028;-74
2022/02/27 10:53:14;;;;;;;17.52;10.02;;;13.70;38.60;;;;;;5055082;28;20268;-71
2022/02/27 10:55:40;;;;;;;16.60;9.95;;;13.80;38.30;;;;;;5057152;28;20090;-72
2022/02/27 10:58:06;;;;;;;18.92;9.85;;;13.90;37.50;;;;;;5055463;28;20057;-71
2022/02/27 11:00:34;;;;;;;19.92;11.05;;;13.90;37.70;;;;;;5058228;28;20029;-75
2022/02/27 11:03:06;;;;;;;18.23;11.02;;;14.00;38.50;;;;;;5073189;28;20078;-74
2022/02/27 11:05:34;;;;;;;19.92;10.80;;;13.90;37.00;;;;;;5074851;28;20425;-74
2022/02/27 11:08:03;;;;;;;18.58;10.50;;;13.90;36.80;;;;;;5073628;28;20421;-70
2022/02/27 11:10:40;;;;;;;16.58;9.98;;;13.80;36.50;;;;;;5059140;28;20036;-74
2022/02/27 11:13:09;;;;;;;14.75;9.40;;;13.60;36.60;;;;;;5062602;28;20016;-72
2022/02/27 11:15:35;;;;;;;14.65;9.15;;;13.50;37.20;;;;;;5072465;28;20032;-74
2022/02/27 11:18:01;;;;;;;16.17;9.70;;;13.40;37.40;;;;;;5056298;28;20074;-75
2022/02/27 11:20:28;;;;;;;17.58;11.15;;;13.40;37.80;;;;;;5053914;28;20474;-71
2022/02/27 11:22:55;;;;;;;22.58;11.65;;;13.30;37.30;;;;;;5064684;28;20363;-72
2022/02/27 11:25:22;;;;;;;26.70;14.60;;;13.40;37.60;;;;;;5054389;28;20428;-74
2022/02/27 11:27:52;;;;;;;21.77;12.63;;;13.40;37.60;;;;;;5054150;28;20044;-75
2022/02/27 11:30:24;;;;;;;22.50;12.45;;;13.30;37.70;;;;;;5063797;28;20064;-72
2022/02/27 11:32:55;;;;;;;25.50;12.50;;;13.20;37.70;;;;;;5063010;28;20043;-70
2022/02/27 11:35:43;;;;;;;24.88;13.05;;;13.20;38.00;;;;;;5067009;28;20032;-73
2022/02/27 11:38:16;;;;;;;26.42;13.18;;;13.10;37.90;;;;;;5057251;28;20571;-71
2022/02/27 11:40:49;;;;;;;21.90;12.05;;;13.10;37.40;;;;;;5059446;28;20102;-73
2022/02/27 11:43:36;;;;;;;22.33;11.75;;;13.10;37.80;;;;;;5072484;28;20029;-73
2022/02/27 11:46:02;;;;;;;22.73;13.40;;;13.20;38.30;;;;;;5060742;28;20066;-71
2022/02/27 11:48:55;;;;;;;22.52;13.32;;;13.20;37.90;;;;;;5068266;28;20040;-72
2022/02/27 11:51:36;;;;;;;24.25;13.73;;;13.30;37.50;;;;;;5059579;28;20012;-76
2022/02/27 11:54:08;;;;;;;23.05;12.40;;;13.30;36.90;;;;;;5063372;28;20091;-74
2022/02/27 11:56:34;;;;;;;21.45;12.45;;;13.20;36.50;;;;;;5053280;28;20092;-72
2022/02/27 11:59:00;;;;;;;18.33;11.27;;;13.20;36.50;;;;;;5053779;28;20036;-73
2022/02/27 12:01:40;;;;;;;28.67;14.27;;;13.10;36.80;;;;;;5054132;28;20096;-71
2022/02/27 12:04:21;;;;;;;25.73;12.43;;;13.20;37.30;;;;;;5062999;28;20071;-72
2022/02/27 12:07:07;;;;;;;28.70;16.17;;;13.20;37.60;;;;;;5060867;28;20103;-73
2022/02/27 12:09:48;;;;;;;22.40;13.98;;;13.30;37.10;;;;;;5066179;28;20037;-73
2022/02/27 12:12:38;;;;;;;20.95;11.85;;;13.30;36.50;;;;;;5065121;28;20036;-72
2022/02/27 12:15:33;;;;;;;31.15;16.02;;;13.30;36.50;;;;;;5064938;28;20382;-70
2022/02/27 12:18:07;;;;;;;22.38;13.35;;;13.30;36.00;;;;;;5066019;28;20394;-75
2022/02/27 12:20:52;;;;;;;23.45;12.80;;;13.30;36.40;;;;;;5071674;28;20024;-70
2022/02/27 12:23:40;;;;;;;28.00;13.43;;;13.40;36.30;;;;;;5072964;28;20020;-73
2022/02/27 12:26:31;;;;;;;20.05;12.93;;;13.50;36.20;;;;;;5072473;28;20008;-71
2022/02/27 12:28:58;;;;;;;23.27;11.82;;;13.60;36.10;;;;;;5070977;28;20486;-73
2022/02/27 12:31:29;;;;;;;22.27;13.35;;;13.70;35.90;;;;;;5075555;28;20030;-75
2022/02/27 12:33:58;;;;;;;25.55;14.52;;;13.70;35.40;;;;;;5071369;28;20536;-73
2022/02/27 12:36:37;;;;;;;23.02;13.45;;;13.80;35.80;;;;;;5062082;28;20025;-74
2022/02/27 12:39:06;;;;;;;22.98;12.82;;;13.90;35.90;;;;;;5052848;28;20114;-73
2022/02/27 12:41:40;;;;;;;26.27;14.73;;;14.00;36.20;;;;;;5069922;28;20048;-71
2022/02/27 12:44:08;;;;;;;24.02;13.38;;;14.10;35.80;;;;;;5059486;28;20494;-72
2022/02/27 12:46:34;;;;;;;26.70;14.38;;;14.30;35.60;;;;;;5059374;28;20415;-72